sensor_id;sensor_type;location;lat;lon;timestamp;temperature;humidity
8043;DHT22;4064;48.132;11.366;2023-01-25T00:01:18;0.60;99.90
8043;DHT22;4064;48.132;11.366;2023-01-25T00:03:44;0.60;99.90
8043;DHT22;4064;48.132;11.366;2023-01-25T00:06:10;0.60;99.90
8043;DHT22;4064;48.132;11.366;2023-01-25T00:08:36;0.60;99.90
8043;DHT22;4064;48.132;11.366;2023-01-25T00:11:03;0.60;99.90
8043;DHT22;4064;48.132;11.366;2023-01-25T00:13:29;0.60;99.90
8043;DHT22;4064;48.132;11.366;2023-01-25T00:16:02;0.50;99.90
8043;DHT22;4064;48.132;11.366;2023-01-25T00:18:28;0.50;99.90
8043;DHT22;4064;48.132;11.366;2023-01-25T00:20:54;0.50;99.90
8043;DHT22;4064;48.132;11.366;2023-01-25T00:23:20;0.50;99.90
8043;DHT22;4064;48.132;11.366;2023-01-25T00:25:45;0.50;99.90
8043;DHT22;4064;48.132;11.366;2023-01-25T00:28:11;0.50;99.90
8043;DHT22;4064;48.132;11.366;2023-01-25T00:30:37;0.50;99.90
8043;DHT22;4064;48.132;11.366;2023-01-25T00:35:55;0.50;99.90
8043;DHT22;4064;48.132;11.366;2023-01-25T00:38:33;0.50;99.90
8043;DHT22;4064;48.132;11.366;2023-01-25T00:40:59;0.50;99.90
8043;DHT22;4064;48.132;11.366;2023-01-25T00:43:25;0.50;99.90
8043;DHT22;4064;48.132;11.366;2023-01-25T00:45:51;0.50;99.90
8043;DHT22;4064;48.132;11.366;2023-01-25T00:48:17;0.50;99.90
8043;DHT22;4064;48.132;11.366;2023-01-25T00:50:42;0.50;99.90
8043;DHT22;4064;48.132;11.366;2023-01-25T00:53:08;0.50;99.90
8043;DHT22;4064;48.132;11.366;2023-01-25T00:55:34;0.50;99.90
8043;DHT22;4064;48.132;11.366;2023-01-25T00:58:00;0.50;99.90
8043;DHT22;4064;48.132;11.366;2023-01-25T01:00:25;0.50;99.90
8043;DHT22;4064;48.132;11.366;2023-01-25T01:02:51;0.50;99.90
8043;DHT22;4064;48.132;11.366;2023-01-25T01:05:17;0.50;99.90
8043;DHT22;4064;48.132;11.366;2023-01-25T01:07:42;0.50;99.90
8043;DHT22;4064;48.132;11.366;2023-01-25T01:10:08;0.40;99.90
8043;DHT22;4064;48.132;11.366;2023-01-25T01:12:34;0.50;99.90
8043;DHT22;4064;48.132;11.366;2023-01-25T01:15:00;0.50;99.90
8043;DHT22;4064;48.132;11.366;2023-01-25T01:17:26;0.50;99.90
8043;DHT22;4064;48.132;11.366;2023-01-25T01:19:51;0.50;99.90
8043;DHT22;4064;48.132;11.366;2023-01-25T01:22:17;0.50;99.90
8043;DHT22;4064;48.132;11.366;2023-01-25T01:24:43;0.50;99.90
8043;DHT22;4064;48.132;11.366;2023-01-25T01:27:09;0.50;99.90
8043;DHT22;4064;48.132;11.366;2023-01-25T01:29:34;0.50;99.90
8043;DHT22;4064;48.132;11.366;2023-01-25T01:32:00;0.50;99.90
8043;DHT22;4064;48.132;11.366;2023-01-25T01:34:26;0.50;99.90
8043;DHT22;4064;48.132;11.366;2023-01-25T01:36:52;0.50;99.90
8043;DHT22;4064;48.132;11.366;2023-01-25T01:39:17;0.50;99.90
8043;DHT22;4064;48.132;11.366;2023-01-25T01:41:43;0.50;99.90
8043;DHT22;4064;48.132;11.366;2023-01-25T01:44:16;0.50;99.90
8043;DHT22;4064;48.132;11.366;2023-01-25T01:46:48;0.40;99.90
8043;DHT22;4064;48.132;11.366;2023-01-25T01:49:17;0.40;99.90
8043;DHT22;4064;48.132;11.366;2023-01-25T01:51:59;0.50;99.90
8043;DHT22;4064;48.132;11.366;2023-01-25T01:54:38;0.40;99.90
8043;DHT22;4064;48.132;11.366;2023-01-25T01:57:08;0.40;99.90
8043;DHT22;4064;48.132;11.366;2023-01-25T02:02:12;0.40;99.90
8043;DHT22;4064;48.132;11.366;2023-01-25T02:04:39;0.40;99.90
8043;DHT22;4064;48.132;11.366;2023-01-25T02:07:14;0.40;99.90
8043;DHT22;4064;48.132;11.366;2023-01-25T02:09:41;0.40;99.90
8043;DHT22;4064;48.132;11.366;2023-01-25T02:12:08;0.40;99.90
8043;DHT22;4064;48.132;11.366;2023-01-25T02:14:36;0.40;99.90
8043;DHT22;4064;48.132;11.366;2023-01-25T02:17:05;0.40;99.90
8043;DHT22;4064;48.132;11.366;2023-01-25T02:22:26;0.30;99.90
8043;DHT22;4064;48.132;11.366;2023-01-25T02:27:31;0.30;99.90
8043;DHT22;4064;48.132;11.366;2023-01-25T02:29:57;0.30;99.90
8043;DHT22;4064;48.132;11.366;2023-01-25T02:32:23;0.30;99.90
8043;DHT22;4064;48.132;11.366;2023-01-25T02:34:49;0.20;99.90
8043;DHT22;4064;48.132;11.366;2023-01-25T02:37:15;0.20;99.90
8043;DHT22;4064;48.132;11.366;2023-01-25T02:39:41;0.20;99.90
8043;DHT22;4064;48.132;11.366;2023-01-25T02:42:07;0.20;99.90
8043;DHT22;4064;48.132;11.366;2023-01-25T02:44:33;0.20;99.90
8043;DHT22;4064;48.132;11.366;2023-01-25T02:46:59;0.20;99.90
8043;DHT22;4064;48.132;11.366;2023-01-25T02:49:25;0.20;99.90
8043;DHT22;4064;48.132;11.366;2023-01-25T02:51:53;0.20;99.90
8043;DHT22;4064;48.132;11.366;2023-01-25T02:54:24;0.20;99.90
8043;DHT22;4064;48.132;11.366;2023-01-25T02:56:51;0.20;99.90
8043;DHT22;4064;48.132;11.366;2023-01-25T02:59:17;0.30;99.90
8043;DHT22;4064;48.132;11.366;2023-01-25T03:01:43;0.20;99.90
8043;DHT22;4064;48.132;11.366;2023-01-25T03:04:10;0.20;99.90
8043;DHT22;4064;48.132;11.366;2023-01-25T03:06:36;0.20;99.90
8043;DHT22;4064;48.132;11.366;2023-01-25T03:09:03;0.20;99.90
8043;DHT22;4064;48.132;11.366;2023-01-25T03:11:30;0.20;99.90
8043;DHT22;4064;48.132;11.366;2023-01-25T03:13:55;0.20;99.90
8043;DHT22;4064;48.132;11.366;2023-01-25T03:16:21;0.20;99.90
8043;DHT22;4064;48.132;11.366;2023-01-25T03:18:47;0.20;99.90
8043;DHT22;4064;48.132;11.366;2023-01-25T03:21:15;0.20;99.90
8043;DHT22;4064;48.132;11.366;2023-01-25T03:23:42;0.20;99.90
8043;DHT22;4064;48.132;11.366;2023-01-25T03:26:14;0.30;99.90
8043;DHT22;4064;48.132;11.366;2023-01-25T03:28:41;0.30;99.90
8043;DHT22;4064;48.132;11.366;2023-01-25T03:31:09;0.30;99.90
8043;DHT22;4064;48.132;11.366;2023-01-25T03:33:35;0.30;99.90
8043;DHT22;4064;48.132;11.366;2023-01-25T03:36:01;0.30;99.90
8043;DHT22;4064;48.132;11.366;2023-01-25T03:38:28;0.30;99.90
8043;DHT22;4064;48.132;11.366;2023-01-25T03:40:54;0.20;99.90
8043;DHT22;4064;48.132;11.366;2023-01-25T03:43:20;0.20;99.90
8043;DHT22;4064;48.132;11.366;2023-01-25T03:45:51;0.20;99.90
8043;DHT22;4064;48.132;11.366;2023-01-25T03:48:18;0.20;99.90
8043;DHT22;4064;48.132;11.366;2023-01-25T03:50:51;0.20;99.90
8043;DHT22;4064;48.132;11.366;2023-01-25T03:53:17;0.30;99.90
8043;DHT22;4064;48.132;11.366;2023-01-25T03:56:01;0.30;99.90
8043;DHT22;4064;48.132;11.366;2023-01-25T03:58:28;0.30;99.90
8043;DHT22;4064;48.132;11.366;2023-01-25T04:00:57;0.30;99.90
8043;DHT22;4064;48.132;11.366;2023-01-25T04:03:23;0.30;99.90
8043;DHT22;4064;48.132;11.366;2023-01-25T04:05:53;0.30;99.90
8043;DHT22;4064;48.132;11.366;2023-01-25T04:08:19;0.30;99.90
8043;DHT22;4064;48.132;11.366;2023-01-25T04:10:56;0.20;99.90
8043;DHT22;4064;48.132;11.366;2023-01-25T04:13:23;0.30;99.90
8043;DHT22;4064;48.132;11.366;2023-01-25T04:15:49;0.30;99.90
8043;DHT22;4064;48.132;11.366;2023-01-25T04:18:15;0.30;99.90
8043;DHT22;4064;48.132;11.366;2023-01-25T04:20:42;0.30;99.90
8043;DHT22;4064;48.132;11.366;2023-01-25T04:23:08;0.30;99.90
8043;DHT22;4064;48.132;11.366;2023-01-25T04:25:34;0.30;99.90
8043;DHT22;4064;48.132;11.366;2023-01-25T04:28:00;0.30;99.90
8043;DHT22;4064;48.132;11.366;2023-01-25T04:30:26;0.30;99.90
8043;DHT22;4064;48.132;11.366;2023-01-25T04:32:52;0.30;99.90
8043;DHT22;4064;48.132;11.366;2023-01-25T04:35:18;0.30;99.90
8043;DHT22;4064;48.132;11.366;2023-01-25T04:37:55;0.30;99.90
8043;DHT22;4064;48.132;11.366;2023-01-25T04:40:21;0.20;99.90
8043;DHT22;4064;48.132;11.366;2023-01-25T04:42:47;0.20;99.90
8043;DHT22;4064;48.132;11.366;2023-01-25T04:45:13;0.20;99.90
8043;DHT22;4064;48.132;11.366;2023-01-25T04:47:39;0.20;99.90
8043;DHT22;4064;48.132;11.366;2023-01-25T04:50:05;0.20;99.90
8043;DHT22;4064;48.132;11.366;2023-01-25T04:52:30;0.20;99.90
8043;DHT22;4064;48.132;11.366;2023-01-25T04:54:56;0.20;99.90
8043;DHT22;4064;48.132;11.366;2023-01-25T04:57:22;0.20;99.90
8043;DHT22;4064;48.132;11.366;2023-01-25T04:59:47;0.20;99.90
8043;DHT22;4064;48.132;11.366;2023-01-25T05:02:13;0.20;99.90
8043;DHT22;4064;48.132;11.366;2023-01-25T05:04:39;0.20;99.90
8043;DHT22;4064;48.132;11.366;2023-01-25T05:07:05;0.20;99.90
8043;DHT22;4064;48.132;11.366;2023-01-25T05:09:30;0.20;99.90
8043;DHT22;4064;48.132;11.366;2023-01-25T05:11:56;0.30;99.90
8043;DHT22;4064;48.132;11.366;2023-01-25T05:14:22;0.20;99.90
8043;DHT22;4064;48.132;11.366;2023-01-25T05:16:47;0.20;99.90
8043;DHT22;4064;48.132;11.366;2023-01-25T05:19:13;0.20;99.90
8043;DHT22;4064;48.132;11.366;2023-01-25T05:21:39;0.20;99.90
8043;DHT22;4064;48.132;11.366;2023-01-25T05:24:28;0.20;99.90
8043;DHT22;4064;48.132;11.366;2023-01-25T05:30:10;0.20;99.90
8043;DHT22;4064;48.132;11.366;2023-01-25T05:32:36;0.20;99.90
8043;DHT22;4064;48.132;11.366;2023-01-25T05:35:02;0.20;99.90
8043;DHT22;4064;48.132;11.366;2023-01-25T05:37:28;0.20;99.90
8043;DHT22;4064;48.132;11.366;2023-01-25T05:39:53;0.20;99.90
8043;DHT22;4064;48.132;11.366;2023-01-25T05:42:20;0.20;99.90
8043;DHT22;4064;48.132;11.366;2023-01-25T05:44:46;0.20;99.90
8043;DHT22;4064;48.132;11.366;2023-01-25T05:47:13;0.20;99.90
8043;DHT22;4064;48.132;11.366;2023-01-25T05:49:39;0.20;99.90
8043;DHT22;4064;48.132;11.366;2023-01-25T05:52:05;0.10;99.90
8043;DHT22;4064;48.132;11.366;2023-01-25T05:54:30;0.10;99.90
8043;DHT22;4064;48.132;11.366;2023-01-25T05:56:56;0.10;99.90
8043;DHT22;4064;48.132;11.366;2023-01-25T05:59:22;0.10;99.90
8043;DHT22;4064;48.132;11.366;2023-01-25T06:01:48;0.20;99.90
8043;DHT22;4064;48.132;11.366;2023-01-25T06:04:14;0.20;99.90
8043;DHT22;4064;48.132;11.366;2023-01-25T06:06:40;0.20;99.90
8043;DHT22;4064;48.132;11.366;2023-01-25T06:09:06;0.10;99.90
8043;DHT22;4064;48.132;11.366;2023-01-25T06:11:32;0.10;99.90
8043;DHT22;4064;48.132;11.366;2023-01-25T06:13:58;0.10;99.90
8043;DHT22;4064;48.132;11.366;2023-01-25T06:16:24;0.10;99.90
8043;DHT22;4064;48.132;11.366;2023-01-25T06:18:49;0.10;99.90
8043;DHT22;4064;48.132;11.366;2023-01-25T06:21:15;0.10;99.90
8043;DHT22;4064;48.132;11.366;2023-01-25T06:23:41;0.10;99.90
8043;DHT22;4064;48.132;11.366;2023-01-25T06:26:10;0.10;99.90
8043;DHT22;4064;48.132;11.366;2023-01-25T06:28:37;0.00;99.90
8043;DHT22;4064;48.132;11.366;2023-01-25T06:33:30;0.00;99.90
8043;DHT22;4064;48.132;11.366;2023-01-25T06:36:16;0.00;99.90
8043;DHT22;4064;48.132;11.366;2023-01-25T06:38:43;0.00;99.90
8043;DHT22;4064;48.132;11.366;2023-01-25T06:41:11;0.00;99.90
8043;DHT22;4064;48.132;11.366;2023-01-25T06:43:37;0.00;99.90
8043;DHT22;4064;48.132;11.366;2023-01-25T06:46:06;0.00;99.90
8043;DHT22;4064;48.132;11.366;2023-01-25T06:48:32;0.00;99.90
8043;DHT22;4064;48.132;11.366;2023-01-25T06:51:04;0.00;99.90
8043;DHT22;4064;48.132;11.366;2023-01-25T06:53:33;0.00;99.90
8043;DHT22;4064;48.132;11.366;2023-01-25T06:56:04;0.00;99.90
8043;DHT22;4064;48.132;11.366;2023-01-25T06:58:30;0.00;99.90
8043;DHT22;4064;48.132;11.366;2023-01-25T07:01:02;0.00;99.90
8043;DHT22;4064;48.132;11.366;2023-01-25T07:03:29;0.00;99.90
8043;DHT22;4064;48.132;11.366;2023-01-25T07:06:03;-0.10;99.90
8043;DHT22;4064;48.132;11.366;2023-01-25T07:08:29;-0.10;99.90
8043;DHT22;4064;48.132;11.366;2023-01-25T07:10:56;-0.10;99.90
8043;DHT22;4064;48.132;11.366;2023-01-25T07:13:24;-0.10;99.90
8043;DHT22;4064;48.132;11.366;2023-01-25T07:16:01;-0.10;99.90
8043;DHT22;4064;48.132;11.366;2023-01-25T07:18:31;0.00;99.90
8043;DHT22;4064;48.132;11.366;2023-01-25T07:21:11;-0.10;99.90
8043;DHT22;4064;48.132;11.366;2023-01-25T07:23:37;-0.10;99.90
8043;DHT22;4064;48.132;11.366;2023-01-25T07:26:04;-0.20;99.90
8043;DHT22;4064;48.132;11.366;2023-01-25T07:28:31;-0.20;99.90
8043;DHT22;4064;48.132;11.366;2023-01-25T07:31:07;-0.20;99.90
8043;DHT22;4064;48.132;11.366;2023-01-25T07:33:33;-0.20;99.90
8043;DHT22;4064;48.132;11.366;2023-01-25T07:36:04;-0.10;99.90
8043;DHT22;4064;48.132;11.366;2023-01-25T07:38:30;-0.10;99.90
8043;DHT22;4064;48.132;11.366;2023-01-25T07:40:56;0.00;99.90
8043;DHT22;4064;48.132;11.366;2023-01-25T07:43:23;0.00;99.90
8043;DHT22;4064;48.132;11.366;2023-01-25T07:45:49;0.00;99.90
8043;DHT22;4064;48.132;11.366;2023-01-25T07:48:16;0.00;99.90
8043;DHT22;4064;48.132;11.366;2023-01-25T07:50:43;0.00;99.90
8043;DHT22;4064;48.132;11.366;2023-01-25T07:53:14;0.00;99.90
8043;DHT22;4064;48.132;11.366;2023-01-25T07:55:40;0.00;99.90
8043;DHT22;4064;48.132;11.366;2023-01-25T07:58:05;0.00;99.90
8043;DHT22;4064;48.132;11.366;2023-01-25T08:00:31;0.00;99.90
8043;DHT22;4064;48.132;11.366;2023-01-25T08:02:57;0.00;99.90
8043;DHT22;4064;48.132;11.366;2023-01-25T08:05:22;0.00;99.90
8043;DHT22;4064;48.132;11.366;2023-01-25T08:07:49;0.00;99.90
8043;DHT22;4064;48.132;11.366;2023-01-25T08:10:15;0.00;99.90
8043;DHT22;4064;48.132;11.366;2023-01-25T08:12:44;0.00;99.90
8043;DHT22;4064;48.132;11.366;2023-01-25T08:15:11;-0.10;99.90
8043;DHT22;4064;48.132;11.366;2023-01-25T08:17:38;-0.10;99.90
8043;DHT22;4064;48.132;11.366;2023-01-25T08:20:04;0.00;99.90
8043;DHT22;4064;48.132;11.366;2023-01-25T08:22:30;-0.10;99.90
8043;DHT22;4064;48.132;11.366;2023-01-25T08:24:56;-0.10;99.90
8043;DHT22;4064;48.132;11.366;2023-01-25T08:27:22;0.00;99.90
8043;DHT22;4064;48.132;11.366;2023-01-25T08:29:48;0.00;99.90
8043;DHT22;4064;48.132;11.366;2023-01-25T08:32:18;0.00;99.90
8043;DHT22;4064;48.132;11.366;2023-01-25T08:34:43;0.00;99.90
8043;DHT22;4064;48.132;11.366;2023-01-25T08:37:09;0.00;99.90
8043;DHT22;4064;48.132;11.366;2023-01-25T08:39:35;0.00;99.90
8043;DHT22;4064;48.132;11.366;2023-01-25T08:42:00;0.00;99.90
8043;DHT22;4064;48.132;11.366;2023-01-25T08:44:26;0.10;99.90
8043;DHT22;4064;48.132;11.366;2023-01-25T08:46:52;0.00;99.90
8043;DHT22;4064;48.132;11.366;2023-01-25T08:49:18;0.00;99.90
8043;DHT22;4064;48.132;11.366;2023-01-25T08:51:44;0.00;99.90
8043;DHT22;4064;48.132;11.366;2023-01-25T08:54:12;0.10;99.90
8043;DHT22;4064;48.132;11.366;2023-01-25T08:56:39;0.00;99.90
8043;DHT22;4064;48.132;11.366;2023-01-25T08:59:05;0.10;99.90
8043;DHT22;4064;48.132;11.366;2023-01-25T09:01:31;0.10;99.90
8043;DHT22;4064;48.132;11.366;2023-01-25T09:03:58;0.10;99.90
8043;DHT22;4064;48.132;11.366;2023-01-25T09:06:23;0.20;99.90
8043;DHT22;4064;48.132;11.366;2023-01-25T09:08:49;0.20;99.90
8043;DHT22;4064;48.132;11.366;2023-01-25T09:11:18;0.20;99.90
8043;DHT22;4064;48.132;11.366;2023-01-25T09:13:44;0.20;99.90
8043;DHT22;4064;48.132;11.366;2023-01-25T09:16:13;0.20;99.90
8043;DHT22;4064;48.132;11.366;2023-01-25T09:18:40;0.20;99.90
8043;DHT22;4064;48.132;11.366;2023-01-25T09:21:15;0.20;99.90
8043;DHT22;4064;48.132;11.366;2023-01-25T09:23:41;0.20;99.90
8043;DHT22;4064;48.132;11.366;2023-01-25T09:26:10;0.30;99.90
8043;DHT22;4064;48.132;11.366;2023-01-25T09:28:36;0.30;99.90
8043;DHT22;4064;48.132;11.366;2023-01-25T09:31:04;0.20;99.90
8043;DHT22;4064;48.132;11.366;2023-01-25T09:33:35;0.30;99.90
8043;DHT22;4064;48.132;11.366;2023-01-25T09:36:01;0.30;99.90
8043;DHT22;4064;48.132;11.366;2023-01-25T09:38:28;0.30;99.90
8043;DHT22;4064;48.132;11.366;2023-01-25T09:43:56;0.30;99.90
8043;DHT22;4064;48.132;11.366;2023-01-25T09:54:47;0.30;99.90
8043;DHT22;4064;48.132;11.366;2023-01-25T09:57:34;0.30;99.90
8043;DHT22;4064;48.132;11.366;2023-01-25T10:00:11;0.30;99.90
8043;DHT22;4064;48.132;11.366;2023-01-25T10:05:26;0.40;99.90
8043;DHT22;4064;48.132;11.366;2023-01-25T10:07:57;0.40;99.90
8043;DHT22;4064;48.132;11.366;2023-01-25T10:10:40;0.40;99.90
8043;DHT22;4064;48.132;11.366;2023-01-25T10:13:15;0.40;99.90
8043;DHT22;4064;48.132;11.366;2023-01-25T10:15:54;0.40;99.90
8043;DHT22;4064;48.132;11.366;2023-01-25T10:18:50;0.40;99.90
8043;DHT22;4064;48.132;11.366;2023-01-25T10:21:38;0.50;99.90
8043;DHT22;4064;48.132;11.366;2023-01-25T10:24:27;0.40;99.90
8043;DHT22;4064;48.132;11.366;2023-01-25T10:27:00;0.40;99.90
8043;DHT22;4064;48.132;11.366;2023-01-25T10:29:30;0.40;99.90
8043;DHT22;4064;48.132;11.366;2023-01-25T10:32:25;0.40;99.90
8043;DHT22;4064;48.132;11.366;2023-01-25T10:34:55;0.50;99.90
8043;DHT22;4064;48.132;11.366;2023-01-25T10:37:27;0.40;99.90
8043;DHT22;4064;48.132;11.366;2023-01-25T10:40:22;0.50;99.90
8043;DHT22;4064;48.132;11.366;2023-01-25T10:43:06;0.50;99.90
8043;DHT22;4064;48.132;11.366;2023-01-25T10:45:35;0.40;99.90
8043;DHT22;4064;48.132;11.366;2023-01-25T10:48:10;0.40;99.90
8043;DHT22;4064;48.132;11.366;2023-01-25T10:53:35;0.40;99.90
8043;DHT22;4064;48.132;11.366;2023-01-25T10:58:38;0.40;99.90
8043;DHT22;4064;48.132;11.366;2023-01-25T11:01:06;0.30;99.90
8043;DHT22;4064;48.132;11.366;2023-01-25T11:03:39;0.40;99.90
8043;DHT22;4064;48.132;11.366;2023-01-25T11:06:07;0.30;99.90
8043;DHT22;4064;48.132;11.366;2023-01-25T11:08:37;0.40;99.90
8043;DHT22;4064;48.132;11.366;2023-01-25T11:13:50;0.30;99.90
8043;DHT22;4064;48.132;11.366;2023-01-25T11:16:33;0.20;99.90
8043;DHT22;4064;48.132;11.366;2023-01-25T11:19:00;0.30;99.90
8043;DHT22;4064;48.132;11.366;2023-01-25T11:21:32;0.20;99.90
8043;DHT22;4064;48.132;11.366;2023-01-25T11:26:39;0.20;99.90
8043;DHT22;4064;48.132;11.366;2023-01-25T11:29:12;0.20;99.90
8043;DHT22;4064;48.132;11.366;2023-01-25T11:31:39;0.20;99.90
8043;DHT22;4064;48.132;11.366;2023-01-25T11:34:15;0.30;99.90
8043;DHT22;4064;48.132;11.366;2023-01-25T11:37:05;0.30;99.90
8043;DHT22;4064;48.132;11.366;2023-01-25T11:45:09;0.20;99.90
8043;DHT22;4064;48.132;11.366;2023-01-25T11:53:32;0.30;99.90
8043;DHT22;4064;48.132;11.366;2023-01-25T11:56:12;0.30;99.90
8043;DHT22;4064;48.132;11.366;2023-01-25T12:07:02;0.40;99.90
8043;DHT22;4064;48.132;11.366;2023-01-25T12:20:59;0.50;99.90
8043;DHT22;4064;48.132;11.366;2023-01-25T12:23:42;0.40;99.90
8043;DHT22;4064;48.132;11.366;2023-01-25T12:26:28;0.30;99.90
8043;DHT22;4064;48.132;11.366;2023-01-25T12:34:36;0.20;99.90
8043;DHT22;4064;48.132;11.366;2023-01-25T12:40:04;0.20;99.90
8043;DHT22;4064;48.132;11.366;2023-01-25T12:42:34;0.20;99.90
8043;DHT22;4064;48.132;11.366;2023-01-25T12:45:24;0.20;99.90
8043;DHT22;4064;48.132;11.366;2023-01-25T12:48:04;0.20;99.90
8043;DHT22;4064;48.132;11.366;2023-01-25T12:50:51;0.20;99.90
8043;DHT22;4064;48.132;11.366;2023-01-25T12:53:47;0.20;99.90
8043;DHT22;4064;48.132;11.366;2023-01-25T12:56:44;0.20;99.90
8043;DHT22;4064;48.132;11.366;2023-01-25T13:02:26;0.30;99.90
8043;DHT22;4064;48.132;11.366;2023-01-25T13:05:00;0.30;99.90
8043;DHT22;4064;48.132;11.366;2023-01-25T13:07:41;0.30;99.90
8043;DHT22;4064;48.132;11.366;2023-01-25T13:12:58;0.30;99.90
8043;DHT22;4064;48.132;11.366;2023-01-25T13:15:41;0.30;99.90
8043;DHT22;4064;48.132;11.366;2023-01-25T13:20:56;0.30;99.90
8043;DHT22;4064;48.132;11.366;2023-01-25T13:28:51;0.30;99.90
8043;DHT22;4064;48.132;11.366;2023-01-25T13:34:12;0.30;99.90
8043;DHT22;4064;48.132;11.366;2023-01-25T13:42:00;0.30;99.90
8043;DHT22;4064;48.132;11.366;2023-01-25T13:44:28;0.30;99.90
8043;DHT22;4064;48.132;11.366;2023-01-25T13:46:56;0.20;99.90
8043;DHT22;4064;48.132;11.366;2023-01-25T13:49:47;0.30;99.90
8043;DHT22;4064;48.132;11.366;2023-01-25T13:52:19;0.30;99.90
8043;DHT22;4064;48.132;11.366;2023-01-25T13:54:47;0.30;99.90
8043;DHT22;4064;48.132;11.366;2023-01-25T13:57:25;0.30;99.90
8043;DHT22;4064;48.132;11.366;2023-01-25T14:00:12;0.30;99.90
8043;DHT22;4064;48.132;11.366;2023-01-25T14:02:41;0.20;99.90
8043;DHT22;4064;48.132;11.366;2023-01-25T14:05:24;0.30;99.90
8043;DHT22;4064;48.132;11.366;2023-01-25T14:07:53;0.20;99.90
8043;DHT22;4064;48.132;11.366;2023-01-25T14:10:25;0.20;99.90
8043;DHT22;4064;48.132;11.366;2023-01-25T14:12:56;0.20;99.90
8043;DHT22;4064;48.132;11.366;2023-01-25T14:15:25;0.20;99.90
8043;DHT22;4064;48.132;11.366;2023-01-25T14:18:15;0.20;99.90
8043;DHT22;4064;48.132;11.366;2023-01-25T14:20:45;0.20;99.90
8043;DHT22;4064;48.132;11.366;2023-01-25T14:23:29;0.20;99.90
8043;DHT22;4064;48.132;11.366;2023-01-25T14:25:57;0.20;99.90
8043;DHT22;4064;48.132;11.366;2023-01-25T14:28:25;0.20;99.90
8043;DHT22;4064;48.132;11.366;2023-01-25T14:30:52;0.10;99.90
8043;DHT22;4064;48.132;11.366;2023-01-25T14:33:26;0.20;99.90
8043;DHT22;4064;48.132;11.366;2023-01-25T14:35:53;0.20;99.90
8043;DHT22;4064;48.132;11.366;2023-01-25T14:38:30;0.20;99.90
8043;DHT22;4064;48.132;11.366;2023-01-25T14:41:17;0.20;99.90
8043;DHT22;4064;48.132;11.366;2023-01-25T14:43:55;0.10;99.90
8043;DHT22;4064;48.132;11.366;2023-01-25T14:46:27;0.10;99.90
8043;DHT22;4064;48.132;11.366;2023-01-25T14:52:04;0.10;99.90
8043;DHT22;4064;48.132;11.366;2023-01-25T14:54:32;0.10;99.90
8043;DHT22;4064;48.132;11.366;2023-01-25T14:57:01;0.10;99.90
8043;DHT22;4064;48.132;11.366;2023-01-25T14:59:48;0.10;99.90
8043;DHT22;4064;48.132;11.366;2023-01-25T15:02:26;0.00;99.90
8043;DHT22;4064;48.132;11.366;2023-01-25T15:07:49;0.00;99.90
8043;DHT22;4064;48.132;11.366;2023-01-25T15:10:22;0.00;99.90
8043;DHT22;4064;48.132;11.366;2023-01-25T15:15:33;0.00;99.90
8043;DHT22;4064;48.132;11.366;2023-01-25T15:18:00;0.00;99.90
8043;DHT22;4064;48.132;11.366;2023-01-25T15:20:40;0.10;99.90
8043;DHT22;4064;48.132;11.366;2023-01-25T15:23:25;0.00;99.90
8043;DHT22;4064;48.132;11.366;2023-01-25T15:25:58;-0.10;99.90
8043;DHT22;4064;48.132;11.366;2023-01-25T15:28:26;-0.10;99.90
8043;DHT22;4064;48.132;11.366;2023-01-25T15:30:52;-0.10;99.90
8043;DHT22;4064;48.132;11.366;2023-01-25T15:33:29;0.00;99.90
8043;DHT22;4064;48.132;11.366;2023-01-25T15:35:55;0.00;99.90
8043;DHT22;4064;48.132;11.366;2023-01-25T15:38:21;0.00;99.90
8043;DHT22;4064;48.132;11.366;2023-01-25T15:40:47;-0.10;99.90
8043;DHT22;4064;48.132;11.366;2023-01-25T15:43:14;0.00;99.90
8043;DHT22;4064;48.132;11.366;2023-01-25T15:45:41;0.00;99.90
8043;DHT22;4064;48.132;11.366;2023-01-25T15:48:16;0.00;99.90
8043;DHT22;4064;48.132;11.366;2023-01-25T15:50:43;-0.10;99.90
8043;DHT22;4064;48.132;11.366;2023-01-25T15:53:14;-0.10;99.90
8043;DHT22;4064;48.132;11.366;2023-01-25T15:55:42;-0.20;99.90
8043;DHT22;4064;48.132;11.366;2023-01-25T15:58:17;-0.10;99.90
8043;DHT22;4064;48.132;11.366;2023-01-25T16:00:45;-0.10;99.90
8043;DHT22;4064;48.132;11.366;2023-01-25T16:03:10;-0.20;99.90
8043;DHT22;4064;48.132;11.366;2023-01-25T16:05:37;-0.20;99.90
8043;DHT22;4064;48.132;11.366;2023-01-25T16:08:03;-0.20;99.90
8043;DHT22;4064;48.132;11.366;2023-01-25T16:10:28;-0.20;99.90
8043;DHT22;4064;48.132;11.366;2023-01-25T16:12:54;-0.20;99.90
8043;DHT22;4064;48.132;11.366;2023-01-25T16:15:19;-0.20;99.90
8043;DHT22;4064;48.132;11.366;2023-01-25T16:17:45;-0.20;99.90
8043;DHT22;4064;48.132;11.366;2023-01-25T16:20:19;-0.20;99.90
8043;DHT22;4064;48.132;11.366;2023-01-25T16:22:46;-0.30;99.90
8043;DHT22;4064;48.132;11.366;2023-01-25T16:25:12;-0.30;99.90
8043;DHT22;4064;48.132;11.366;2023-01-25T16:27:50;-0.30;99.90
8043;DHT22;4064;48.132;11.366;2023-01-25T16:30:19;-0.30;99.90
8043;DHT22;4064;48.132;11.366;2023-01-25T16:32:45;-0.30;99.90
8043;DHT22;4064;48.132;11.366;2023-01-25T16:35:11;-0.30;99.90
8043;DHT22;4064;48.132;11.366;2023-01-25T16:37:37;-0.40;99.90
8043;DHT22;4064;48.132;11.366;2023-01-25T16:40:03;-0.30;99.90
8043;DHT22;4064;48.132;11.366;2023-01-25T16:42:29;-0.30;99.90
8043;DHT22;4064;48.132;11.366;2023-01-25T16:44:55;-0.30;99.90
8043;DHT22;4064;48.132;11.366;2023-01-25T16:47:20;-0.30;99.90
8043;DHT22;4064;48.132;11.366;2023-01-25T16:49:46;-0.30;99.90
8043;DHT22;4064;48.132;11.366;2023-01-25T16:52:12;-0.30;99.90
8043;DHT22;4064;48.132;11.366;2023-01-25T16:54:37;-0.30;99.90
8043;DHT22;4064;48.132;11.366;2023-01-25T16:57:03;-0.30;99.90
8043;DHT22;4064;48.132;11.366;2023-01-25T16:59:29;-0.30;99.90
8043;DHT22;4064;48.132;11.366;2023-01-25T17:01:55;-0.20;99.90
8043;DHT22;4064;48.132;11.366;2023-01-25T17:04:20;-0.30;99.90
8043;DHT22;4064;48.132;11.366;2023-01-25T17:06:48;-0.30;99.90
8043;DHT22;4064;48.132;11.366;2023-01-25T17:09:17;-0.30;99.90
8043;DHT22;4064;48.132;11.366;2023-01-25T17:11:44;-0.30;99.90
8043;DHT22;4064;48.132;11.366;2023-01-25T17:14:15;-0.30;99.90
8043;DHT22;4064;48.132;11.366;2023-01-25T17:16:41;-0.30;99.90
8043;DHT22;4064;48.132;11.366;2023-01-25T17:19:11;-0.30;99.90
8043;DHT22;4064;48.132;11.366;2023-01-25T17:21:37;-0.30;99.90
8043;DHT22;4064;48.132;11.366;2023-01-25T17:24:03;-0.30;99.90
8043;DHT22;4064;48.132;11.366;2023-01-25T17:26:30;-0.30;99.90
8043;DHT22;4064;48.132;11.366;2023-01-25T17:28:57;-0.30;99.90
8043;DHT22;4064;48.132;11.366;2023-01-25T17:31:24;-0.30;99.90
8043;DHT22;4064;48.132;11.366;2023-01-25T17:33:52;-0.30;99.90
8043;DHT22;4064;48.132;11.366;2023-01-25T17:36:18;-0.30;99.90
8043;DHT22;4064;48.132;11.366;2023-01-25T17:38:44;-0.30;99.90
8043;DHT22;4064;48.132;11.366;2023-01-25T17:41:12;-0.30;99.90
8043;DHT22;4064;48.132;11.366;2023-01-25T17:43:38;-0.30;99.90
8043;DHT22;4064;48.132;11.366;2023-01-25T17:46:23;-0.30;99.90
8043;DHT22;4064;48.132;11.366;2023-01-25T17:48:51;-0.30;99.90
8043;DHT22;4064;48.132;11.366;2023-01-25T17:51:18;-0.30;99.90
8043;DHT22;4064;48.132;11.366;2023-01-25T17:53:44;-0.30;99.90
8043;DHT22;4064;48.132;11.366;2023-01-25T17:56:11;-0.30;99.90
8043;DHT22;4064;48.132;11.366;2023-01-25T17:58:38;-0.20;99.90
8043;DHT22;4064;48.132;11.366;2023-01-25T18:01:15;-0.30;99.90
8043;DHT22;4064;48.132;11.366;2023-01-25T18:03:42;-0.20;99.90
8043;DHT22;4064;48.132;11.366;2023-01-25T18:06:14;-0.20;99.90